Time;durP1;ratioP1;P1;durP2;ratioP2;P2;SDS_P1;SDS_P2;PMS_P1;PMS_P2;Temp;Humidity;BMP_temperature;BMP_pressure;BME280_temperature;BME280_humidity;BME280_pressure;Samples;Min_cycle;Max_cycle;Signal;HPM_P1;HPM_P2
2021/07/22 00:00:09;;;;;;;12.95;9.38;;;18.40;72.00;;;17.39;68.99;96447.66;4940485;28;20137;-66
2021/07/22 00:02:35;;;;;;;11.25;8.68;;;18.40;72.10;;;17.37;68.95;96444.41;4953449;28;20137;-66
2021/07/22 00:05:00;;;;;;;14.60;9.15;;;18.20;72.60;;;17.31;68.57;96434.69;4948075;28;20519;-65
2021/07/22 00:07:26;;;;;;;12.23;8.15;;;18.10;72.90;;;17.27;69.43;96444.94;4933534;28;20035;-70
2021/07/22 00:09:52;;;;;;;12.32;8.57;;;18.10;73.20;;;17.23;69.50;96446.44;4968488;28;20112;-65
2021/07/22 00:12:17;;;;;;;11.18;9.32;;;18.10;73.20;;;17.19;69.17;96441.75;4972970;28;20034;-65
2021/07/22 00:14:43;;;;;;;10.68;9.40;;;18.10;73.10;;;17.19;69.24;96436.44;4923052;28;20197;-65
2021/07/22 00:17:09;;;;;;;13.68;9.50;;;18.10;73.10;;;17.15;69.84;96438.72;4953527;28;20034;-65
2021/07/22 00:19:35;;;;;;;17.40;9.65;;;18.00;73.10;;;17.10;69.72;96434.09;4934692;28;20142;-65
2021/07/22 00:22:01;;;;;;;13.00;9.80;;;18.00;73.20;;;17.06;69.59;96432.91;4943676;28;20570;-65
2021/07/22 00:24:27;;;;;;;12.65;9.93;;;18.00;73.30;;;17.01;70.20;96440.75;4931386;28;20046;-67
2021/07/22 00:26:52;;;;;;;17.40;9.45;;;17.90;73.30;;;17.01;70.18;96434.63;4928585;28;20070;-65
2021/07/22 00:29:18;;;;;;;13.85;9.55;;;18.00;73.40;;;16.95;70.03;96436.28;4953983;28;20042;-67
2021/07/22 00:31:44;;;;;;;12.43;9.43;;;17.90;73.40;;;16.88;70.31;96432.91;4962087;28;20030;-65
2021/07/22 00:34:10;;;;;;;11.93;9.50;;;17.80;73.30;;;16.75;69.99;96431.19;4946596;28;20046;-65
2021/07/22 00:36:35;;;;;;;14.02;9.48;;;17.70;73.50;;;16.69;69.73;96441.88;4945056;28;20039;-65
2021/07/22 00:39:01;;;;;;;12.52;9.57;;;17.60;73.00;;;16.63;69.75;96432.09;4940762;28;20032;-65
2021/07/22 00:41:27;;;;;;;12.23;9.13;;;17.60;72.70;;;16.62;70.04;96430.47;4939380;28;20035;-67
2021/07/22 00:43:53;;;;;;;13.68;9.23;;;17.60;72.40;;;16.60;69.50;96433.34;4956298;28;20062;-65
2021/07/22 00:46:18;;;;;;;14.93;8.82;;;17.60;72.10;;;16.53;69.49;96438.72;4961290;28;20060;-66
2021/07/22 00:48:44;;;;;;;12.05;9.65;;;17.50;72.20;;;16.47;69.25;96436.91;4959688;28;20046;-65
2021/07/22 00:51:10;;;;;;;11.35;9.57;;;17.50;72.40;;;16.39;69.53;96441.69;4952475;28;20095;-66
2021/07/22 00:53:36;;;;;;;13.38;9.70;;;17.40;72.60;;;16.38;70.37;96438.22;4961087;28;20433;-66
2021/07/22 00:56:03;;;;;;;18.15;10.13;;;17.40;72.60;;;16.36;69.54;96434.19;4979306;28;20510;-65
2021/07/22 00:58:29;;;;;;;14.70;10.02;;;17.40;72.70;;;16.35;70.45;96433.38;4933704;28;20108;-65
2021/07/22 01:00:54;;;;;;;14.48;10.50;;;17.40;73.00;;;16.33;70.18;96431.97;4931855;28;20570;-65
2021/07/22 01:03:20;;;;;;;11.57;9.63;;;17.40;73.10;;;16.34;69.65;96445.00;4932652;28;20397;-65
2021/07/22 01:05:46;;;;;;;14.57;10.10;;;17.40;73.30;;;16.30;70.75;96443.81;4917384;28;20514;-65
2021/07/22 01:08:11;;;;;;;14.23;10.57;;;17.30;73.60;;;16.29;70.83;96439.50;4959095;28;20058;-66
2021/07/22 01:10:37;;;;;;;14.93;10.85;;;17.30;73.70;;;16.28;71.18;96429.94;4955719;28;20119;-65
2021/07/22 01:13:03;;;;;;;14.13;10.93;;;17.30;73.90;;;16.27;70.28;96433.63;4948612;28;20046;-65
2021/07/22 01:15:30;;;;;;;13.98;10.27;;;17.30;74.10;;;16.24;70.50;96429.56;4944780;28;20038;-65
2021/07/22 01:17:55;;;;;;;12.73;10.48;;;17.30;74.10;;;16.24;70.60;96429.56;4929925;28;20058;-65
2021/07/22 01:20:23;;;;;;;13.25;10.55;;;17.20;74.30;;;16.18;71.73;96426.97;4942557;28;20035;-65
2021/07/22 01:22:50;;;;;;;14.43;10.15;;;17.20;74.50;;;16.16;71.05;96432.47;4935187;28;20057;-65
2021/07/22 01:25:16;;;;;;;15.75;10.95;;;17.10;74.70;;;16.12;71.70;96430.47;4947431;28;20034;-65
2021/07/22 01:27:42;;;;;;;15.35;11.10;;;17.10;74.70;;;16.10;72.11;96421.94;4938246;28;20050;-65
2021/07/22 01:30:12;;;;;;;14.45;10.90;;;17.10;75.00;;;16.11;72.96;96424.38;4936559;28;20568;-65
2021/07/22 01:32:38;;;;;;;13.93;10.93;;;17.10;75.00;;;16.12;71.88;96425.16;4940058;28;20669;-67
2021/07/22 01:35:05;;;;;;;14.65;11.20;;;17.20;75.20;;;16.08;71.43;96419.50;4943890;28;20050;-67
2021/07/22 01:37:31;;;;;;;14.95;10.60;;;17.10;75.20;;;16.08;72.02;96423.97;4921532;28;20062;-67
2021/07/22 01:39:56;;;;;;;14.60;11.57;;;17.10;75.20;;;16.06;72.17;96421.50;4957454;28;20043;-68
2021/07/22 01:42:22;;;;;;;13.85;10.82;;;17.10;75.40;;;16.05;72.74;96427.03;4922042;28;20035;-67
2021/07/22 01:44:48;;;;;;;17.88;11.73;;;17.10;75.50;;;15.96;71.93;96431.81;4947982;28;20577;-68
2021/07/22 01:47:14;;;;;;;16.50;11.98;;;17.00;75.50;;;15.94;73.03;96425.91;4971442;28;20026;-67
2021/07/22 01:49:40;;;;;;;15.13;10.95;;;17.00;75.70;;;15.90;72.14;96428.19;4955673;28;20984;-66
2021/07/22 01:52:06;;;;;;;16.35;10.93;;;17.00;75.40;;;15.90;72.47;96425.53;4951238;28;20402;-67
2021/07/22 01:54:32;;;;;;;17.13;11.25;;;17.00;75.40;;;15.86;72.56;96421.69;4963681;28;20647;-66
2021/07/22 01:57:01;;;;;;;15.07;11.52;;;17.00;75.30;;;15.87;73.52;96425.16;4922177;29;20036;-68
2021/07/22 01:59:35;;;;;;;17.83;11.45;;;17.00;75.10;;;15.86;72.86;96416.38;4964972;28;20043;-65
2021/07/22 02:02:09;;;;;;;18.45;11.70;;;16.90;75.10;;;15.87;73.03;96418.00;4960687;28;20027;-65
2021/07/22 02:04:37;;;;;;;15.45;10.63;;;17.00;75.20;;;15.88;73.71;96414.31;4954739;28;20039;-65
2021/07/22 02:07:03;;;;;;;13.50;11.20;;;17.00;75.30;;;15.86;71.80;96411.06;4957182;28;20130;-65
2021/07/22 02:09:29;;;;;;;16.80;11.63;;;17.00;75.30;;;15.83;72.34;96408.81;4944937;28;20085;-64
2021/07/22 02:11:57;;;;;;;15.20;11.82;;;16.90;75.40;;;15.85;72.68;96412.09;4961849;28;20450;-65
2021/07/22 02:14:23;;;;;;;16.20;11.70;;;16.90;75.30;;;15.86;73.30;96410.25;4964416;28;20116;-64
2021/07/22 02:16:49;;;;;;;16.42;11.45;;;17.00;75.30;;;15.85;73.07;96405.97;4957158;28;20033;-65
2021/07/22 02:19:15;;;;;;;15.88;10.55;;;16.90;75.50;;;15.79;72.82;96410.28;4938381;28;20101;-65
2021/07/22 02:21:40;;;;;;;14.32;11.25;;;16.90;75.40;;;15.77;73.86;96412.34;4943331;28;20097;-65
2021/07/22 02:24:07;;;;;;;15.57;11.82;;;16.90;75.40;;;15.74;73.06;96410.13;4974636;28;20031;-65
2021/07/22 02:26:33;;;;;;;21.60;11.73;;;16.80;75.60;;;15.72;73.66;96411.34;4936455;28;20035;-65
2021/07/22 02:29:00;;;;;;;21.73;12.00;;;16.80;75.70;;;15.69;72.89;96401.19;4978046;28;20062;-65
2021/07/22 02:31:26;;;;;;;20.23;11.95;;;16.80;75.60;;;15.66;73.52;96413.03;4952563;28;20034;-66
2021/07/22 02:33:51;;;;;;;15.70;11.05;;;16.70;75.60;;;15.65;73.17;96414.06;4956717;28;20034;-65
2021/07/22 02:36:17;;;;;;;20.83;11.73;;;16.70;75.40;;;15.65;71.98;96414.06;4956348;28;20038;-66
2021/07/22 02:38:43;;;;;;;15.00;9.85;;;16.70;75.00;;;15.62;72.73;96414.47;4976530;28;20031;-65
2021/07/22 02:41:09;;;;;;;15.88;11.13;;;16.70;74.90;;;15.60;72.22;96416.50;4947293;28;20153;-65
2021/07/22 02:43:34;;;;;;;14.32;10.05;;;16.60;74.90;;;15.56;72.50;96420.59;4952349;28;21715;-65
2021/07/22 02:46:10;;;;;;;13.50;10.35;;;16.60;74.70;;;15.57;73.62;96422.22;4950968;28;20039;-65
2021/07/22 02:48:36;;;;;;;15.05;10.63;;;16.60;74.80;;;15.55;72.16;96421.59;4945581;28;20050;-65
2021/07/22 02:51:06;;;;;;;14.55;10.68;;;16.60;74.90;;;15.51;73.22;96421.22;4956586;28;20027;-65
2021/07/22 02:53:32;;;;;;;18.37;11.73;;;16.60;75.00;;;15.49;73.03;96419.81;4976982;28;20185;-64
2021/07/22 02:55:59;;;;;;;15.82;10.52;;;16.60;75.10;;;15.50;72.96;96411.66;4958332;28;20437;-64
2021/07/22 02:58:27;;;;;;;15.93;10.18;;;16.60;75.10;;;15.48;73.21;96418.19;4935217;28;20093;-65
2021/07/22 03:00:54;;;;;;;15.50;11.73;;;16.60;75.20;;;15.46;72.14;96425.53;4945642;28;20651;-65
2021/07/22 03:03:19;;;;;;;17.05;11.32;;;16.50;75.20;;;15.41;73.19;96422.72;4932577;28;20031;-65
2021/07/22 03:05:47;;;;;;;16.83;11.68;;;16.50;75.20;;;15.39;72.47;96435.34;4949580;28;20101;-65
2021/07/22 03:08:13;;;;;;;15.30;10.77;;;16.40;75.60;;;15.35;73.93;96428.84;4952075;28;20062;-66
2021/07/22 03:10:40;;;;;;;12.65;9.98;;;16.40;75.70;;;15.33;72.59;96432.50;4940585;28;20094;-65
2021/07/22 03:13:06;;;;;;;13.35;9.65;;;16.40;75.80;;;15.29;72.43;96433.16;4961750;28;20027;-65
2021/07/22 03:15:32;;;;;;;15.88;9.07;;;16.40;75.80;;;15.25;72.84;96432.75;4952549;28;20068;-65
2021/07/22 03:17:58;;;;;;;13.93;9.80;;;16.40;75.80;;;15.21;72.60;96428.91;4969769;28;20042;-65
2021/07/22 03:20:23;;;;;;;13.57;9.23;;;16.30;76.00;;;15.23;72.70;96426.84;4952534;28;20097;-65
2021/07/22 03:22:49;;;;;;;12.30;9.48;;;16.40;76.00;;;15.23;73.30;96426.84;4978272;28;20058;-67
2021/07/22 03:25:15;;;;;;;12.85;9.95;;;16.40;76.00;;;15.24;72.92;96427.66;4954169;28;20402;-67
2021/07/22 03:27:41;;;;;;;12.00;10.27;;;16.40;76.00;;;15.23;73.02;96432.16;4969109;28;20039;-67
2021/07/22 03:30:07;;;;;;;16.80;10.50;;;16.40;76.00;;;15.23;73.06;96421.56;4953392;28;20030;-67
2021/07/22 03:32:35;;;;;;;17.55;10.68;;;16.40;75.90;;;15.22;73.14;96433.19;4955107;28;20042;-65
2021/07/22 03:35:01;;;;;;;16.92;11.10;;;16.30;76.00;;;15.21;73.25;96428.09;4931822;28;20035;-66
2021/07/22 03:37:26;;;;;;;21.90;10.75;;;16.30;75.80;;;15.21;73.33;96422.78;4944600;28;20402;-65
2021/07/22 03:39:52;;;;;;;18.75;11.93;;;16.30;75.90;;;15.23;73.78;96437.47;4961852;28;20495;-67
2021/07/22 03:42:18;;;;;;;14.75;10.48;;;16.40;75.40;;;15.22;72.60;96435.03;4968441;28;20043;-66
2021/07/22 03:44:43;;;;;;;16.77;10.93;;;16.40;75.60;;;15.22;73.13;96435.84;4955129;28;20131;-67
2021/07/22 03:47:09;;;;;;;19.40;11.15;;;16.40;75.70;;;15.23;74.33;96439.28;4929502;29;20062;-68
2021/07/22 03:49:35;;;;;;;16.90;11.02;;;16.30;75.30;;;15.21;74.25;96431.56;4953223;28;20043;-65
2021/07/22 03:52:01;;;;;;;16.10;11.32;;;16.30;75.40;;;15.22;72.85;96435.84;4955284;28;20122;-65
2021/07/22 03:54:27;;;;;;;15.45;10.85;;;16.30;75.20;;;15.20;73.34;96440.53;4962615;28;20057;-65
2021/07/22 03:56:53;;;;;;;19.95;10.65;;;16.30;75.40;;;15.19;74.20;96438.91;4977971;28;20472;-66
2021/07/22 03:59:19;;;;;;;22.13;12.00;;;16.40;75.50;;;15.15;73.25;96440.31;4958037;28;20088;-66
2021/07/22 04:01:44;;;;;;;16.60;11.23;;;16.40;75.40;;;15.15;73.74;96432.38;4934274;28;20042;-66
2021/07/22 04:04:10;;;;;;;20.38;11.13;;;16.40;75.40;;;15.18;73.39;96439.94;4934605;28;20459;-69
2021/07/22 04:06:42;;;;;;;16.25;10.15;;;16.40;75.60;;;15.21;74.39;96441.34;4933705;28;20045;-68
2021/07/22 04:09:08;;;;;;;17.40;11.15;;;16.40;75.50;;;15.17;73.42;96438.31;4936479;28;20519;-67
2021/07/22 04:11:37;;;;;;;21.65;11.60;;;16.40;75.90;;;15.19;74.78;96441.56;4965503;28;20050;-68
2021/07/22 04:14:03;;;;;;;19.45;11.95;;;16.40;76.10;;;15.20;73.99;96445.84;4942680;28;20549;-67
2021/07/22 04:16:29;;;;;;;16.13;12.02;;;16.40;76.10;;;15.20;74.90;96450.31;4930549;29;20031;-67
2021/07/22 04:18:55;;;;;;;20.20;12.32;;;16.40;76.20;;;15.22;74.54;96446.44;4924246;29;20045;-70
2021/07/22 04:21:20;;;;;;;16.50;12.02;;;16.50;76.30;;;15.25;74.38;96451.31;4931865;28;20040;-67
2021/07/22 04:23:47;;;;;;;18.40;11.50;;;16.50;76.30;;;15.27;75.43;96451.91;4960031;28;20093;-67
2021/07/22 04:26:16;;;;;;;16.75;12.30;;;16.60;76.20;;;15.32;75.33;96457.41;4944015;28;20403;-67
2021/07/22 04:28:43;;;;;;;18.92;11.88;;;16.60;76.30;;;15.36;74.19;96452.47;4928202;28;20121;-67
2021/07/22 04:31:08;;;;;;;16.60;11.60;;;16.60;76.10;;;15.40;74.79;96453.72;4937648;28;20033;-67
2021/07/22 04:33:34;;;;;;;16.52;12.32;;;16.70;76.00;;;15.41;74.46;96451.88;4949462;28;20027;-67
2021/07/22 04:36:00;;;;;;;21.23;12.05;;;16.70;76.00;;;15.41;74.52;96457.19;4923538;28;20035;-67
2021/07/22 04:38:26;;;;;;;18.55;12.25;;;16.70;75.90;;;15.44;75.17;96459.41;4939862;28;20376;-67
2021/07/22 04:40:51;;;;;;;15.65;12.00;;;16.70;75.90;;;15.45;74.68;96461.03;4970216;28;20085;-67
2021/07/22 04:43:17;;;;;;;18.40;11.80;;;16.70;76.00;;;15.47;75.41;96456.31;4967516;28;20055;-67
2021/07/22 04:45:43;;;;;;;14.82;10.65;;;16.80;76.10;;;15.49;75.51;96456.94;4939133;28;20081;-67
2021/07/22 04:48:11;;;;;;;19.33;11.70;;;16.80;76.20;;;15.50;74.94;96456.72;4957526;28;20043;-67
2021/07/22 04:50:37;;;;;;;16.45;11.68;;;16.80;76.40;;;15.48;75.51;96450.81;4970629;28;20081;-67
2021/07/22 04:53:03;;;;;;;16.05;11.13;;;16.80;76.40;;;15.52;75.26;96451.19;4929274;29;20035;-67
2021/07/22 04:55:28;;;;;;;15.93;11.48;;;16.80;76.60;;;15.55;74.60;96458.72;4962925;28;20106;-68
2021/07/22 04:58:00;;;;;;;16.52;11.35;;;16.90;76.40;;;15.59;76.56;96452.81;4974698;28;20376;-67
2021/07/22 05:00:26;;;;;;;18.65;11.98;;;16.90;76.30;;;15.61;74.82;96456.09;4943031;28;20039;-68
2021/07/22 05:02:58;;;;;;;17.13;12.13;;;17.00;76.50;;;15.63;76.58;96453.22;4955609;28;20034;-68
2021/07/22 05:05:29;;;;;;;18.02;12.30;;;17.00;76.30;;;15.65;76.04;96459.13;4944896;28;20058;-67
2021/07/22 05:07:54;;;;;;;18.17;12.95;;;17.00;76.60;;;15.66;75.50;96463.41;4972627;28;20110;-66
2021/07/22 05:10:20;;;;;;;18.73;12.95;;;17.00;76.80;;;15.70;75.38;96447.88;4935249;28;20035;-67
2021/07/22 05:12:46;;;;;;;22.88;12.63;;;17.10;76.60;;;15.72;74.83;96446.66;4972719;28;20411;-66
2021/07/22 05:15:12;;;;;;;16.33;11.75;;;17.10;76.60;;;15.76;75.15;96444.38;4940689;28;20499;-67
2021/07/22 05:17:38;;;;;;;15.60;11.35;;;17.10;76.60;;;15.81;75.29;96445.34;4933086;28;20077;-64
2021/07/22 05:20:06;;;;;;;17.10;12.80;;;17.20;76.50;;;15.88;75.12;96446.16;4956676;28;20526;-67
2021/07/22 05:22:32;;;;;;;17.85;12.23;;;17.30;76.40;;;15.92;76.24;96447.34;4955341;28;20038;-67
2021/07/22 05:24:57;;;;;;;16.02;12.13;;;17.40;76.50;;;15.98;75.66;96450.16;4958760;28;20401;-67
2021/07/22 05:27:24;;;;;;;17.30;12.57;;;17.50;76.40;;;16.03;75.98;96442.38;4931554;28;20480;-67
2021/07/22 05:29:49;;;;;;;24.85;17.70;;;17.50;76.20;;;16.09;76.08;96446.84;4952484;28;20046;-68
2021/07/22 05:32:15;;;;;;;22.08;14.48;;;17.60;76.30;;;16.18;75.44;96441.03;4942835;28;20032;-67
2021/07/22 05:34:41;;;;;;;20.73;13.30;;;17.70;76.20;;;16.28;75.08;96451.16;4935265;28;20061;-68
2021/07/22 05:37:22;;;;;;;15.75;12.70;;;17.70;75.60;;;16.35;75.85;96445.81;4937213;29;20039;-67
2021/07/22 05:39:48;;;;;;;17.27;12.85;;;17.90;75.50;;;16.44;75.14;96449.81;4963527;28;20032;-63
2021/07/22 05:42:13;;;;;;;19.65;12.93;;;18.00;74.90;;;16.53;75.41;96452.00;4956971;28;20093;-70
2021/07/22 05:44:39;;;;;;;18.13;12.75;;;18.10;74.50;;;16.65;75.22;96452.09;4968301;28;20034;-65
2021/07/22 05:47:05;;;;;;;18.02;12.57;;;18.20;74.30;;;16.75;74.59;96451.66;4943437;28;20125;-66
2021/07/22 05:49:31;;;;;;;18.48;12.05;;;18.40;73.80;;;16.85;74.50;96441.31;4947905;28;20038;-66
2021/07/22 05:51:57;;;;;;;16.08;11.25;;;18.50;73.70;;;16.97;74.57;96454.66;4936822;29;20079;-65
2021/07/22 05:54:23;;;;;;;19.70;12.73;;;18.60;73.30;;;17.06;74.51;96446.19;4957106;28;20027;-65
2021/07/22 05:56:48;;;;;;;14.38;11.77;;;18.70;72.70;;;17.17;74.11;96449.16;4955808;28;20085;-72
2021/07/22 05:59:14;;;;;;;14.85;12.38;;;18.90;72.10;;;17.31;73.50;96450.63;4937189;28;20157;-65
2021/07/22 06:01:40;;;;;;;18.10;11.23;;;19.00;71.90;;;17.42;73.04;96445.38;4950551;28;20050;-66
2021/07/22 06:04:05;;;;;;;16.40;10.93;;;19.20;70.30;;;17.53;72.98;96449.13;4969624;28;20034;-64
2021/07/22 06:06:33;;;;;;;14.23;11.65;;;19.40;70.50;;;17.65;73.13;96458.00;4938622;28;20069;-65
2021/07/22 06:09:01;;;;;;;17.63;11.02;;;19.50;69.30;;;17.72;72.00;96455.28;4951918;28;20073;-65
2021/07/22 06:11:27;;;;;;;18.77;11.23;;;19.60;68.80;;;17.85;72.01;96456.94;4936141;29;20376;-66
2021/07/22 06:13:53;;;;;;;14.57;11.40;;;19.70;68.80;;;17.98;71.16;96456.75;4951687;28;20032;-65
2021/07/22 06:16:18;;;;;;;14.00;11.20;;;19.90;68.50;;;18.08;71.01;96450.88;4953809;28;20032;-65
2021/07/22 06:18:44;;;;;;;15.57;11.20;;;20.00;68.40;;;18.18;70.90;96457.28;4937964;28;20522;-64
2021/07/22 06:21:15;;;;;;;18.48;11.02;;;20.10;67.60;;;18.30;70.79;96458.09;4959542;28;20042;-65
2021/07/22 06:23:41;;;;;;;15.60;11.32;;;20.30;67.30;;;18.40;70.78;96452.22;4938749;28;20031;-66
2021/07/22 06:26:06;;;;;;;17.70;11.55;;;20.60;66.30;;;18.55;70.57;96455.25;4942493;28;20042;-66
2021/07/22 06:28:32;;;;;;;14.35;10.85;;;20.80;65.90;;;18.69;70.79;96458.53;4991841;28;20066;-65
2021/07/22 06:30:58;;;;;;;13.85;11.32;;;20.90;65.50;;;18.82;70.46;96458.31;4959893;28;20418;-65
2021/07/22 06:33:24;;;;;;;15.10;10.57;;;21.10;65.10;;;18.95;68.82;96458.06;4971112;28;20536;-65
2021/07/22 06:35:50;;;;;;;15.02;11.20;;;21.10;64.80;;;19.09;68.53;96445.31;4956366;28;20035;-65
2021/07/22 06:38:15;;;;;;;13.90;10.95;;;21.30;63.50;;;19.21;68.86;96455.94;4955282;28;20050;-64
2021/07/22 06:40:41;;;;;;;16.23;12.00;;;21.50;62.70;;;19.36;68.83;96453.63;4952616;28;20070;-65
2021/07/22 06:43:08;;;;;;;14.77;11.80;;;21.70;62.10;;;19.51;67.18;96456.59;4944087;28;20117;-65
2021/07/22 06:45:35;;;;;;;16.10;11.30;;;21.80;61.70;;;19.64;68.19;96452.06;4967054;28;20043;-66
2021/07/22 06:48:04;;;;;;;15.27;11.15;;;22.00;61.60;;;19.81;65.60;96452.94;4970817;28;20023;-65
2021/07/22 06:50:29;;;;;;;17.80;11.10;;;22.10;60.90;;;19.94;67.15;96460.66;4961970;28;20027;-66
2021/07/22 06:52:55;;;;;;;16.55;10.80;;;22.30;60.90;;;20.09;65.90;96457.44;4956175;28;20038;-65
2021/07/22 06:55:21;;;;;;;18.25;11.20;;;22.50;60.80;;;20.25;66.42;96450.50;4965260;28;20031;-64
2021/07/22 06:57:48;;;;;;;17.88;11.27;;;22.70;59.50;;;20.40;66.10;96458.78;4971428;28;20054;-69
2021/07/22 07:00:14;;;;;;;14.98;10.30;;;22.80;59.10;;;20.55;64.69;96453.72;4943530;28;20114;-72
2021/07/22 07:02:40;;;;;;;16.85;10.82;;;22.90;57.50;;;20.70;64.89;96455.81;4935210;29;20118;-69
2021/07/22 07:05:06;;;;;;;18.88;11.80;;;23.10;57.60;;;20.84;64.15;96451.78;4919652;29;20083;-65
2021/07/22 07:07:32;;;;;;;22.08;11.77;;;23.30;57.70;;;20.93;64.63;96446.81;4969147;28;20039;-68
2021/07/22 07:09:57;;;;;;;17.83;10.88;;;23.40;56.90;;;21.06;63.77;96443.78;4941131;29;20458;-66
2021/07/22 07:12:23;;;;;;;16.45;10.90;;;23.60;56.90;;;21.20;63.34;96441.56;4935938;28;20066;-66
2021/07/22 07:14:49;;;;;;;15.00;10.63;;;23.70;57.00;;;21.36;63.36;96446.09;4938451;28;20038;-65
2021/07/22 07:17:15;;;;;;;17.02;11.18;;;23.90;56.50;;;21.50;62.72;96435.81;4957378;28;20427;-66
2021/07/22 07:19:41;;;;;;;19.05;10.75;;;24.00;55.50;;;21.61;62.54;96441.03;4957954;28;20035;-66
2021/07/22 07:22:06;;;;;;;12.95;10.20;;;24.10;55.40;;;21.70;62.37;96436.84;4928777;29;20038;-66
2021/07/22 07:24:32;;;;;;;19.38;11.10;;;24.20;55.40;;;21.85;61.76;96443.44;4952255;28;20042;-66
2021/07/22 07:26:58;;;;;;;15.95;10.90;;;24.30;54.30;;;21.99;61.55;96440.13;4970709;28;20031;-66
2021/07/22 07:29:24;;;;;;;16.40;10.32;;;24.40;53.60;;;22.13;61.04;96443.22;4958297;28;20089;-67
2021/07/22 07:31:49;;;;;;;15.73;11.15;;;24.60;52.90;;;22.29;59.44;96444.97;4943916;28;20077;-68
2021/07/22 07:34:15;;;;;;;13.98;10.15;;;24.70;50.80;;;22.35;59.21;96445.81;4971014;28;20049;-67
2021/07/22 07:36:44;;;;;;;14.63;9.82;;;24.70;51.20;;;22.48;59.50;96434.69;4956928;28;20038;-67
2021/07/22 07:39:12;;;;;;;14.20;10.40;;;25.00;51.60;;;22.65;58.39;96441.81;4945119;28;20130;-66
2021/07/22 07:41:38;;;;;;;16.30;11.13;;;25.20;51.80;;;22.81;58.19;96438.13;4955507;28;20587;-66
2021/07/22 07:44:04;;;;;;;15.05;9.48;;;25.40;51.00;;;22.98;58.23;96432.66;4962911;28;20032;-67
2021/07/22 07:46:29;;;;;;;19.88;9.90;;;25.60;51.80;;;23.12;58.43;96433.81;4959067;28;20503;-67
2021/07/22 07:48:55;;;;;;;15.32;9.35;;;25.60;50.20;;;23.27;58.23;96430.38;4969730;28;20481;-67
2021/07/22 07:51:21;;;;;;;14.80;9.90;;;25.80;51.00;;;23.44;56.94;96439.06;4958943;28;20030;-67
2021/07/22 07:53:46;;;;;;;13.77;10.15;;;26.00;49.50;;;23.57;56.96;96435.94;4953043;28;20038;-68
2021/07/22 07:56:12;;;;;;;15.93;9.80;;;26.00;49.10;;;23.67;56.68;96437.84;4939839;28;20562;-68
2021/07/22 07:58:38;;;;;;;14.52;9.45;;;26.20;49.50;;;23.82;56.37;96432.53;4937408;28;20503;-66
2021/07/22 08:01:04;;;;;;;12.38;8.40;;;26.40;49.70;;;23.98;56.39;96430.66;4952793;28;20039;-70
2021/07/22 08:03:29;;;;;;;13.30;9.20;;;26.60;49.30;;;24.11;55.81;96436.34;4953129;28;20045;-71
2021/07/22 08:05:55;;;;;;;12.65;9.02;;;26.60;47.10;;;24.27;56.39;96433.69;4937275;28;20038;-71
2021/07/22 08:08:22;;;;;;;12.57;8.93;;;26.80;49.10;;;24.43;55.48;96427.25;4919559;29;20201;-69
2021/07/22 08:10:47;;;;;;;15.93;9.38;;;27.00;47.40;;;24.60;55.66;96430.47;4958038;28;20034;-67
2021/07/22 08:13:13;;;;;;;14.27;8.88;;;27.10;48.10;;;24.75;55.04;96427.00;4949561;28;20035;-72
2021/07/22 08:15:42;;;;;;;19.73;14.48;;;27.30;47.50;;;24.94;53.62;96429.94;4933566;28;20408;-66
2021/07/22 08:18:09;;;;;;;14.52;9.75;;;27.60;46.80;;;25.08;54.30;96432.88;4952274;28;20046;-68
2021/07/22 08:20:35;;;;;;;14.80;9.60;;;27.70;45.70;;;25.23;53.70;96433.66;4964045;28;20035;-67
2021/07/22 08:23:00;;;;;;;14.63;9.57;;;27.90;45.20;;;25.39;53.17;96429.03;4933024;28;20035;-73
2021/07/22 08:25:26;;;;;;;17.35;9.85;;;28.00;44.80;;;25.54;52.89;96428.94;4936878;28;20470;-70
2021/07/22 08:27:52;;;;;;;17.27;9.75;;;28.20;45.10;;;25.72;52.97;96424.06;4960786;28;20500;-71
2021/07/22 08:30:18;;;;;;;17.35;9.40;;;28.40;45.20;;;25.92;52.26;96430.16;4923854;28;20054;-67
2021/07/22 08:32:43;;;;;;;16.25;9.68;;;28.60;43.90;;;26.08;51.69;96433.56;4951949;28;20046;-71
2021/07/22 08:35:09;;;;;;;16.67;8.75;;;28.80;43.30;;;26.28;51.94;96424.53;4955680;28;20034;-71
2021/07/22 08:37:35;;;;;;;17.05;8.93;;;29.10;44.60;;;26.49;50.91;96431.41;4944335;28;20043;-66
2021/07/22 08:40:04;;;;;;;21.52;10.13;;;29.30;42.10;;;26.68;50.83;96430.69;4954110;28;20035;-67
2021/07/22 08:42:33;;;;;;;24.05;9.07;;;29.60;42.40;;;26.88;50.08;96429.72;4951915;28;20467;-65
2021/07/22 08:44:58;;;;;;;15.70;8.00;;;29.70;41.40;;;27.05;49.70;96430.94;4953138;28;20363;-66
2021/07/22 08:47:24;;;;;;;10.60;7.63;;;30.00;41.00;;;27.15;48.95;96430.81;4955729;28;20049;-66
2021/07/22 08:49:50;;;;;;;12.48;8.52;;;30.00;38.10;;;27.33;48.52;96421.16;4960726;28;20073;-65
2021/07/22 08:52:16;;;;;;;13.15;7.85;;;30.20;39.90;;;27.52;48.58;96423.13;4933575;28;20031;-69
2021/07/22 08:54:41;;;;;;;11.82;8.45;;;30.40;40.50;;;27.74;47.90;96420.69;4932933;29;20066;-72
2021/07/22 08:57:10;;;;;;;11.20;8.32;;;30.70;39.30;;;27.91;47.12;96425.63;4930572;29;20123;-70
2021/07/22 08:59:36;;;;;;;15.80;8.05;;;30.70;40.90;;;28.14;47.73;96418.53;4952775;28;20503;-67
2021/07/22 09:02:03;;;;;;;14.55;8.27;;;31.10;39.90;;;28.36;46.42;96416.06;4934090;28;20058;-68
2021/07/22 09:04:29;;;;;;;14.07;7.43;;;31.30;39.40;;;28.55;46.64;96416.03;4977983;28;20043;-67
2021/07/22 09:06:58;;;;;;;14.05;8.52;;;31.30;38.40;;;28.73;43.68;96417.06;4953883;28;20121;-66
2021/07/22 09:09:24;;;;;;;11.80;7.90;;;31.60;36.60;;;28.84;45.43;96415.81;4937340;28;20038;-66
2021/07/22 09:12:02;;;;;;;10.88;7.07;;;31.60;37.20;;;28.99;41.66;96418.28;4926303;28;20038;-66
2021/07/22 09:14:29;;;;;;;12.85;7.07;;;31.80;36.00;;;29.16;44.15;96410.34;4934844;28;20122;-72
2021/07/22 09:16:56;;;;;;;12.00;7.95;;;32.10;37.10;;;29.36;43.19;96416.47;4943161;28;20070;-65
2021/07/22 09:19:40;;;;;;;11.60;7.32;;;32.10;34.90;;;29.59;40.74;96410.06;4958373;28;20512;-67
2021/07/22 09:22:08;;;;;;;11.93;7.13;;;32.50;34.90;;;29.74;41.21;96415.19;4952305;28;20043;-67
2021/07/22 09:24:50;;;;;;;12.88;7.53;;;32.60;33.40;;;29.88;40.92;96413.28;4933940;28;20046;-69
2021/07/22 09:27:41;;;;;;;10.85;7.82;;;32.70;35.30;;;30.10;40.84;96403.56;4920666;28;20522;-69
2021/07/22 09:30:18;;;;;;;11.43;7.55;;;33.00;35.70;;;30.25;40.18;96408.66;4923040;28;20086;-68
2021/07/22 09:32:47;;;;;;;14.13;7.50;;;33.10;34.90;;;30.46;41.85;96412.47;4923041;28;20046;-67
2021/07/22 09:35:22;;;;;;;13.02;8.15;;;33.50;35.30;;;30.63;39.03;96400.19;4917396;29;20091;-67
2021/07/22 09:37:49;;;;;;;12.07;7.60;;;33.70;33.20;;;30.78;41.39;96410.66;4936261;28;20043;-68
2021/07/22 09:40:17;;;;;;;11.43;7.60;;;33.90;33.60;;;30.95;39.73;96408.03;4935899;29;20101;-67
2021/07/22 09:42:48;;;;;;;12.23;7.43;;;33.90;33.20;;;31.13;39.65;96397.25;4936404;29;20035;-67
2021/07/22 09:45:16;;;;;;;13.52;8.20;;;34.20;33.60;;;31.24;39.60;96393.97;4941689;28;20042;-66
2021/07/22 09:47:42;;;;;;;13.23;8.02;;;34.10;33.10;;;31.32;40.16;96392.41;4951810;28;20042;-66
2021/07/22 09:50:10;;;;;;;12.02;7.63;;;34.10;32.80;;;31.49;38.19;96394.38;4948744;28;20054;-67
2021/07/22 09:52:35;;;;;;;10.98;7.28;;;34.40;31.60;;;31.64;39.14;96388.47;4950050;28;20062;-67
2021/07/22 09:55:01;;;;;;;8.73;7.00;;;34.60;31.30;;;31.77;37.80;96384.84;4947215;28;20035;-66
2021/07/22 09:57:28;;;;;;;10.02;7.10;;;34.70;32.10;;;31.92;38.37;96387.13;4959986;28;20038;-66
2021/07/22 09:59:53;;;;;;;13.85;7.30;;;35.10;32.70;;;32.13;37.96;96383.75;4941984;28;20051;-67
2021/07/22 10:02:23;;;;;;;9.88;7.40;;;35.40;31.30;;;32.34;36.74;96386.66;4954913;28;20046;-68
2021/07/22 10:04:54;;;;;;;10.45;7.25;;;35.60;30.70;;;32.50;35.40;96385.03;4953048;28;20443;-67